Time;durP1;ratioP1;P1;durP2;ratioP2;P2;SDS_P1;SDS_P2;PMS_P1;PMS_P2;Temp;Humidity;BMP_temperature;BMP_pressure;BME280_temperature;BME280_humidity;BME280_pressure;Samples;Min_cycle;Max_cycle;Signal;HPM_P1;HPM_P2
2022/08/11 00:02:53;;;;;;;0.50;0.50;;;25.20;48.10;;;;;;6320328;27;20045;-40
2022/08/11 00:05:56;;;;;;;0.80;0.50;;;25.10;48.10;;;;;;6320598;27;20147;-40
2022/08/11 00:09:00;;;;;;;0.65;0.60;;;25.20;48.40;;;;;;6311081;27;20596;-38
2022/08/11 00:12:03;;;;;;;0.57;0.57;;;25.20;48.30;;;;;;6303653;27;20114;-42
2022/08/11 00:15:06;;;;;;;0.80;0.60;;;25.20;48.40;;;;;;6298252;27;20046;-39
2022/08/11 00:18:10;;;;;;;0.82;0.60;;;25.10;48.40;;;;;;6301382;27;20043;-39
2022/08/11 00:21:13;;;;;;;0.80;0.57;;;25.10;48.40;;;;;;6317795;27;20207;-40
2022/08/11 00:24:16;;;;;;;0.60;0.55;;;25.00;48.40;;;;;;6316182;27;21181;-39
2022/08/11 00:27:18;;;;;;;0.98;0.50;;;25.10;48.60;;;;;;6303761;27;20061;-40
2022/08/11 00:30:19;;;;;;;0.50;0.50;;;25.10;48.60;;;;;;6319283;27;20153;-41
2022/08/11 00:33:29;;;;;;;0.55;0.50;;;25.00;48.70;;;;;;6318201;27;20345;-39
2022/08/11 00:36:50;;;;;;;0.60;0.60;;;25.10;48.70;;;;;;6305699;27;20173;-41
2022/08/11 00:39:54;;;;;;;0.90;0.60;;;25.10;48.80;;;;;;6289845;27;20579;-39
2022/08/11 00:43:14;;;;;;;0.65;0.65;;;25.00;48.90;;;;;;6303091;27;20039;-39
2022/08/11 00:46:34;;;;;;;0.75;0.60;;;25.00;49.00;;;;;;6291766;27;20373;-39
2022/08/11 00:49:47;;;;;;;0.68;0.68;;;24.90;49.00;;;;;;6304289;27;20046;-38
2022/08/11 00:53:06;;;;;;;0.75;0.45;;;24.90;49.10;;;;;;6304767;27;20510;-38
2022/08/11 00:56:32;;;;;;;0.60;0.50;;;25.10;49.90;;;;;;6300935;27;20522;-40
2022/08/11 00:59:57;;;;;;;0.52;0.47;;;25.00;49.30;;;;;;6312809;27;20351;-39
2022/08/11 01:03:17;;;;;;;0.52;0.45;;;25.10;50.10;;;;;;6317308;27;20043;-39
2022/08/11 01:06:37;;;;;;;0.57;0.50;;;25.10;49.50;;;;;;6313737;27;20042;-39
2022/08/11 01:09:55;;;;;;;0.50;0.50;;;24.90;49.50;;;;;;6311989;27;20053;-39
2022/08/11 01:13:11;;;;;;;0.70;0.50;;;25.00;49.60;;;;;;6312401;27;20169;-40
2022/08/11 01:16:46;;;;;;;0.50;0.50;;;24.90;49.60;;;;;;6310084;27;20951;-40
2022/08/11 01:20:14;;;;;;;0.70;0.50;;;25.00;49.80;;;;;;6310780;27;20249;-39
2022/08/11 01:24:05;;;;;;;0.60;0.50;;;25.00;49.90;;;;;;6295021;27;20517;-40
2022/08/11 01:27:22;;;;;;;0.60;0.60;;;24.80;49.80;;;;;;6294915;27;20395;-43
2022/08/11 01:30:54;;;;;;;0.40;0.40;;;24.90;50.00;;;;;;6305798;27;20454;-38
2022/08/11 01:34:20;;;;;;;0.93;0.60;;;24.70;50.60;;;;;;6299567;27;20051;-40
2022/08/11 01:37:51;;;;;;;0.60;0.50;;;24.80;50.10;;;;;;6301543;27;20287;-39
2022/08/11 01:41:21;;;;;;;0.50;0.50;;;24.90;50.20;;;;;;6314305;27;20054;-38
2022/08/11 01:44:48;;;;;;;0.63;0.60;;;24.80;50.20;;;;;;6309457;27;20046;-38
2022/08/11 01:48:01;;;;;;;0.57;0.50;;;24.80;50.30;;;;;;6320238;27;20047;-41
2022/08/11 01:51:24;;;;;;;0.82;0.60;;;24.70;50.30;;;;;;6321691;27;20055;-38
2022/08/11 01:54:31;;;;;;;0.68;0.57;;;24.70;50.40;;;;;;6319498;27;20436;-39
2022/08/11 01:57:40;;;;;;;0.70;0.60;;;24.80;50.40;;;;;;6297210;27;20085;-39
2022/08/11 02:00:51;;;;;;;0.60;0.50;;;24.80;50.50;;;;;;6306209;27;20395;-39
2022/08/11 02:03:57;;;;;;;1.00;0.60;;;24.70;50.50;;;;;;6311912;27;20455;-39
2022/08/11 02:07:08;;;;;;;0.40;0.40;;;24.80;50.60;;;;;;6295867;27;20173;-39
2022/08/11 02:13:46;;;;;;;0.60;0.60;;;24.70;50.60;;;;;;6309953;27;20357;-41
2022/08/11 02:17:06;;;;;;;0.65;0.50;;;24.80;50.70;;;;;;6304013;27;20038;-38
2022/08/11 02:23:48;;;;;;;0.60;0.60;;;24.60;50.60;;;;;;6293789;27;20828;-39
2022/08/11 02:27:17;;;;;;;0.50;0.50;;;24.70;50.80;;;;;;6307598;27;20039;-39
2022/08/11 02:30:27;;;;;;;0.40;0.40;;;24.70;50.70;;;;;;6288770;27;20574;-39
2022/08/11 02:33:34;;;;;;;0.50;0.50;;;24.70;50.80;;;;;;6292123;27;20328;-40
2022/08/11 02:36:44;;;;;;;0.55;0.40;;;24.80;50.80;;;;;;6319159;27;20046;-39
2022/08/11 02:39:54;;;;;;;0.55;0.47;;;24.60;50.70;;;;;;6321187;27;21488;-41
2022/08/11 02:43:09;;;;;;;0.70;0.50;;;24.60;50.70;;;;;;6313972;27;20034;-39
2022/08/11 02:46:27;;;;;;;0.60;0.60;;;24.70;50.80;;;;;;6330956;27;20119;-39
2022/08/11 02:53:13;;;;;;;0.73;0.60;;;24.60;50.70;;;;;;6319402;27;20046;-39
2022/08/11 02:56:25;;;;;;;0.88;0.57;;;24.70;50.80;;;;;;6304917;27;20810;-39
2022/08/11 03:03:16;;;;;;;0.77;0.60;;;24.70;51.40;;;;;;6318798;27;21019;-40
2022/08/11 03:06:29;;;;;;;0.50;0.50;;;24.70;50.80;;;;;;6331821;27;20051;-38
2022/08/11 03:09:44;;;;;;;0.40;0.40;;;24.60;50.70;;;;;;6308557;27;20042;-39
2022/08/11 03:19:47;;;;;;;0.55;0.55;;;24.70;50.80;;;;;;6325225;27;21019;-38
2022/08/11 03:22:56;;;;;;;0.70;0.60;;;24.70;50.90;;;;;;6315453;27;20746;-38
2022/08/11 03:26:05;;;;;;;1.67;0.73;;;24.70;51.00;;;;;;6327270;27;20039;-38
2022/08/11 03:29:15;;;;;;;0.75;0.70;;;24.70;51.00;;;;;;6304805;27;20777;-38
2022/08/11 03:32:29;;;;;;;1.40;0.60;;;24.70;51.00;;;;;;6307136;27;20072;-39
2022/08/11 03:35:36;;;;;;;1.08;0.70;;;24.70;50.90;;;;;;6308398;27;20062;-38
2022/08/11 03:38:58;;;;;;;0.60;0.43;;;24.80;50.90;;;;;;6323703;27;20062;-39
2022/08/11 03:42:12;;;;;;;0.73;0.50;;;24.80;50.90;;;;;;6322437;27;20067;-38
2022/08/11 03:45:23;;;;;;;2.83;0.63;;;24.90;51.00;;;;;;6319845;27;20058;-41
2022/08/11 03:48:38;;;;;;;0.50;0.50;;;24.80;51.00;;;;;;6330299;27;20043;-39
2022/08/11 03:51:49;;;;;;;0.88;0.70;;;24.80;50.90;;;;;;6327778;27;20039;-38
2022/08/11 03:55:03;;;;;;;0.55;0.50;;;24.60;50.80;;;;;;6330242;27;20059;-38
2022/08/11 03:58:22;;;;;;;;;;;24.70;50.80;;;;;;6309609;27;20145;-39
2022/08/11 04:01:47;;;;;;;0.52;0.50;;;24.80;50.80;;;;;;6333361;27;20746;-38
2022/08/11 04:05:16;;;;;;;0.55;0.50;;;24.60;50.70;;;;;;6326972;27;20038;-38
2022/08/11 04:08:43;;;;;;;0.60;0.57;;;24.70;50.80;;;;;;6323869;27;20042;-39
2022/08/11 04:12:08;;;;;;;1.10;0.60;;;24.70;50.70;;;;;;6304513;27;21383;-38
2022/08/11 04:19:22;;;;;;;0.47;0.40;;;24.60;50.60;;;;;;6301177;27;20127;-39
2022/08/11 04:22:50;;;;;;;1.10;0.55;;;24.70;50.70;;;;;;6302756;27;20043;-40
2022/08/11 04:26:16;;;;;;;0.80;0.80;;;24.70;50.60;;;;;;6321680;27;20940;-38
2022/08/11 04:29:38;;;;;;;0.90;0.75;;;24.70;50.60;;;;;;6318335;27;20211;-38
2022/08/11 04:33:33;;;;;;;0.77;0.50;;;24.60;50.50;;;;;;6303433;27;20038;-38
2022/08/11 04:40:42;;;;;;;0.80;0.80;;;24.70;50.40;;;;;;6304154;27;20042;-38
2022/08/11 04:44:11;;;;;;;0.80;0.80;;;24.70;50.40;;;;;;6320344;27;20973;-38
2022/08/11 05:01:57;;;;;;;1.70;1.10;;;24.70;50.10;;;;;;6292524;27;21043;-39
2022/08/11 05:08:51;;;;;;;1.80;1.17;;;24.80;50.20;;;;;;6318990;27;20045;-39
2022/08/11 05:12:08;;;;;;;2.80;1.10;;;24.80;50.10;;;;;;6307699;27;20149;-38
2022/08/11 05:35:42;;;;;;;1.98;1.13;;;24.70;49.80;;;;;;6319953;27;21038;-38
2022/08/11 05:59:12;;;;;;;1.05;0.75;;;24.70;49.50;;;;;;6312337;27;20106;-39
2022/08/11 06:02:14;;;;;;;1.60;0.93;;;24.70;49.50;;;;;;6313257;27;20058;-39
2022/08/11 06:05:17;;;;;;;1.00;0.80;;;24.70;49.60;;;;;;6315537;27;20078;-41
2022/08/11 06:08:29;;;;;;;1.10;0.70;;;24.90;49.60;;;;;;6313366;27;20099;-39
2022/08/11 06:11:38;;;;;;;1.23;0.70;;;24.80;49.50;;;;;;6293244;27;20057;-39
2022/08/11 06:14:46;;;;;;;1.20;0.70;;;24.90;49.70;;;;;;6292188;27;20043;-39
2022/08/11 06:17:50;;;;;;;0.90;0.80;;;24.80;49.50;;;;;;6289140;27;20937;-41
2022/08/11 06:20:53;;;;;;;1.35;0.88;;;24.80;49.50;;;;;;6286023;27;20047;-39
2022/08/11 06:23:56;;;;;;;1.15;0.77;;;24.90;49.50;;;;;;6283823;27;20145;-41
2022/08/11 06:26:59;;;;;;;1.13;0.80;;;24.90;49.50;;;;;;6275321;27;20035;-38
2022/08/11 06:30:14;;;;;;;2.03;0.88;;;24.90;49.40;;;;;;6277128;27;20099;-38
2022/08/11 06:33:28;;;;;;;1.13;0.75;;;24.90;49.40;;;;;;6274245;27;20035;-38
2022/08/11 06:36:38;;;;;;;1.00;0.80;;;24.90;49.30;;;;;;6276914;27;20074;-39
2022/08/11 06:39:49;;;;;;;0.70;0.57;;;24.90;49.30;;;;;;6282593;27;20045;-40
2022/08/11 06:42:57;;;;;;;1.35;0.70;;;24.90;49.30;;;;;;6298624;27;20987;-41
2022/08/11 06:46:02;;;;;;;1.42;0.80;;;24.90;49.30;;;;;;6280840;27;20042;-41
2022/08/11 06:49:05;;;;;;;1.08;0.88;;;24.70;49.20;;;;;;6292938;27;20150;-41
2022/08/11 06:52:31;;;;;;;1.13;0.90;;;24.90;49.30;;;;;;6244999;27;20051;-42
2022/08/11 07:02:24;;;;;;;0.90;0.63;;;24.90;49.20;;;;;;6247831;27;20055;-42
2022/08/11 07:05:42;;;;;;;1.70;0.75;;;25.00;49.30;;;;;;6211533;27;20050;-41
2022/08/11 07:16:01;;;;;;;0.70;0.50;;;25.10;49.20;;;;;;6204640;27;20044;-40
2022/08/11 07:29:10;;;;;;;2.63;0.60;;;25.20;49.00;;;;;;6262314;27;20042;-39
2022/08/11 07:32:22;;;;;;;2.90;0.60;;;25.20;49.00;;;;;;6214870;27;21442;-38
2022/08/11 07:35:27;;;;;;;0.88;0.60;;;25.30;49.00;;;;;;6244312;27;20223;-40
2022/08/11 07:38:43;;;;;;;2.55;0.80;;;25.20;48.80;;;;;;6260245;27;20078;-40
2022/08/11 07:41:50;;;;;;;0.77;0.70;;;25.30;48.80;;;;;;6224234;27;22155;-38
2022/08/11 07:54:39;;;;;;;0.93;0.63;;;25.30;48.30;;;;;;6235229;27;20046;-40
2022/08/11 08:17:56;;;;;;;0.50;0.50;;;25.20;47.30;;;;;;6238165;27;20118;-41
2022/08/11 08:21:18;;;;;;;0.65;0.45;;;25.40;47.40;;;;;;6228839;27;20054;-41
2022/08/11 08:24:21;;;;;;;0.43;0.43;;;25.40;47.10;;;;;;6222716;27;20081;-40
2022/08/11 08:27:27;;;;;;;0.60;0.52;;;25.30;46.90;;;;;;6249036;27;20043;-42
2022/08/11 08:33:48;;;;;;;0.45;0.45;;;25.50;46.60;;;;;;6243619;27;20043;-41
2022/08/11 08:36:51;;;;;;;0.50;0.45;;;25.30;46.30;;;;;;6233211;27;20043;-41
2022/08/11 08:39:54;;;;;;;0.30;0.30;;;25.50;46.20;;;;;;6248335;27;20154;-40
2022/08/11 08:42:57;;;;;;;0.73;0.55;;;25.40;46.00;;;;;;6226203;27;20062;-39
2022/08/11 08:46:00;;;;;;;1.45;0.40;;;25.50;45.90;;;;;;6231528;27;20047;-42
2022/08/11 08:49:03;;;;;;;0.40;0.40;;;25.50;45.70;;;;;;6235308;27;20051;-41
2022/08/11 08:52:08;;;;;;;0.70;0.50;;;25.50;45.60;;;;;;6245516;27;20057;-40
2022/08/11 08:55:30;;;;;;;0.80;0.50;;;25.50;45.40;;;;;;6234972;27;23615;-40
2022/08/11 08:58:35;;;;;;;0.40;0.30;;;25.40;45.30;;;;;;6249521;27;21189;-40
2022/08/11 09:01:47;;;;;;;0.60;0.32;;;25.50;45.00;;;;;;6215190;27;21069;-40
2022/08/11 09:04:49;;;;;;;0.60;0.38;;;25.50;44.80;;;;;;6239509;27;20059;-40
2022/08/11 09:07:56;;;;;;;2.97;0.52;;;25.50;44.50;;;;;;6245497;27;20047;-41
2022/08/11 09:14:16;;;;;;;0.32;0.32;;;25.60;44.00;;;;;;6222558;27;20054;-39
2022/08/11 09:17:18;;;;;;;0.50;0.40;;;25.60;43.80;;;;;;6250507;27;20169;-42
2022/08/11 09:20:23;;;;;;;0.68;0.30;;;25.50;43.50;;;;;;6253376;27;20042;-40
2022/08/11 09:27:03;;;;;;;0.30;0.30;;;25.60;43.00;;;;;;6237613;27;20043;-39
2022/08/11 09:30:06;;;;;;;1.15;0.25;;;25.50;42.80;;;;;;6251917;27;21112;-40
2022/08/11 09:33:14;;;;;;;0.63;0.43;;;25.60;42.60;;;;;;6217564;27;20051;-40
2022/08/11 09:46:09;;;;;;;1.77;0.35;;;25.50;41.60;;;;;;6245090;27;20053;-42
2022/08/11 09:49:11;;;;;;;0.30;0.30;;;25.50;41.40;;;;;;6240020;27;20093;-46
2022/08/11 09:52:17;;;;;;;0.30;0.25;;;25.50;41.20;;;;;;6249455;27;28288;-43
2022/08/11 09:55:20;;;;;;;0.30;0.30;;;25.60;41.10;;;;;;6254380;27;21713;-43
2022/08/11 09:58:23;;;;;;;0.40;0.40;;;25.60;40.90;;;;;;6255028;27;21016;-41
2022/08/11 10:01:48;;;;;;;0.47;0.43;;;25.60;40.60;;;;;;6246608;27;20035;-41
2022/08/11 10:07:00;;;;;;;1.05;0.30;;;25.60;40.40;;;;;;6249720;27;20046;-43
2022/08/11 10:08:18;;;;;;;0.88;0.40;;;25.70;40.20;;;;;;6247664;27;20047;-41
2022/08/11 10:11:23;;;;;;;0.30;0.30;;;25.70;40.00;;;;;;6257356;27;20053;-40
2022/08/11 10:21:13;;;;;;;0.55;0.40;;;25.80;39.50;;;;;;6230114;27;20047;-41
2022/08/11 10:27:29;;;;;;;0.50;0.40;;;25.80;39.30;;;;;;6265426;27;20050;-42
2022/08/11 10:34:15;;;;;;;0.55;0.38;;;25.80;39.10;;;;;;6260749;27;20208;-41
2022/08/11 10:37:23;;;;;;;0.40;0.40;;;25.70;38.90;;;;;;6280775;27;20046;-42
2022/08/11 10:40:25;;;;;;;0.70;0.50;;;25.80;38.90;;;;;;6282506;27;20234;-42
2022/08/11 10:43:27;;;;;;;0.80;0.40;;;25.80;38.60;;;;;;6289168;27;20046;-45
2022/08/11 10:59:57;;;;;;;0.50;0.40;;;25.80;37.70;;;;;;6282539;27;20046;-42
2022/08/11 11:02:59;;;;;;;0.77;0.30;;;25.90;37.50;;;;;;6276470;27;20089;-43
2022/08/11 11:06:26;;;;;;;0.43;0.43;;;25.80;37.20;;;;;;6266754;27;20467;-42
2022/08/11 11:09:33;;;;;;;0.55;0.40;;;25.80;37.10;;;;;;6281498;27;20128;-43
2022/08/11 11:19:18;;;;;;;0.60;0.38;;;25.80;36.60;;;;;;6286118;27;20116;-46
2022/08/11 11:26:08;;;;;;;0.60;0.40;;;25.80;36.30;;;;;;6290536;27;20039;-42
2022/08/11 11:29:26;;;;;;;0.55;0.30;;;25.80;36.00;;;;;;6282088;27;20047;-40
2022/08/11 11:32:40;;;;;;;0.70;0.50;;;25.70;35.80;;;;;;6274906;27;21159;-41
2022/08/11 11:35:55;;;;;;;0.43;0.40;;;25.70;35.60;;;;;;6276057;27;20055;-42
2022/08/11 11:38:57;;;;;;;0.40;0.30;;;25.70;35.30;;;;;;6283379;27;20042;-43
2022/08/11 11:42:03;;;;;;;0.73;0.50;;;25.80;35.40;;;;;;6284228;27;20050;-42
2022/08/11 11:45:06;;;;;;;0.30;0.30;;;25.70;35.00;;;;;;6268013;27;20050;-40
2022/08/11 11:48:10;;;;;;;0.40;0.30;;;25.80;35.00;;;;;;6252354;27;20130;-42
2022/08/11 11:51:12;;;;;;;0.40;0.40;;;25.70;34.90;;;;;;6267308;27;20170;-40
2022/08/11 11:54:15;;;;;;;0.30;0.30;;;25.60;35.30;;;;;;6255276;27;20046;-43
2022/08/11 12:03:51;;;;;;;0.30;0.30;;;25.70;34.60;;;;;;6258225;27;20047;-42
2022/08/11 12:08:08;;;;;;;0.50;0.50;;;25.70;34.60;;;;;;6237038;27;20043;-43
2022/08/11 12:10:19;;;;;;;0.55;0.40;;;25.70;34.80;;;;;;6226499;27;20444;-42
2022/08/11 12:16:40;;;;;;;0.43;0.38;;;26.00;35.10;;;;;;6255959;27;20060;-42
2022/08/11 12:19:42;;;;;;;0.40;0.30;;;25.70;34.90;;;;;;6215957;27;20031;-45
2022/08/11 12:29:28;;;;;;;0.30;0.30;;;25.80;35.10;;;;;;6256878;27;20046;-42
2022/08/11 12:32:33;;;;;;;1.27;0.40;;;25.90;35.20;;;;;;6259459;27;21103;-44
2022/08/11 12:35:36;;;;;;;3.28;0.75;;;25.90;35.30;;;;;;6261494;27;20340;-45
2022/08/11 12:38:38;;;;;;;0.45;0.40;;;25.90;35.20;;;;;;6246238;27;20050;-43
2022/08/11 12:52:07;;;;;;;0.63;0.40;;;25.90;35.20;;;;;;6259427;27;20053;-48
2022/08/11 12:58:41;;;;;;;0.40;0.40;;;26.00;35.30;;;;;;6231293;27;20043;-49
2022/08/11 13:04:58;;;;;;;0.40;0.30;;;25.90;35.20;;;;;;6215612;27;20105;-44
2022/08/11 13:08:02;;;;;;;0.43;0.30;;;26.00;35.30;;;;;;6240342;27;20123;-46
2022/08/11 13:14:18;;;;;;;0.40;0.30;;;26.00;35.10;;;;;;6250724;27;20039;-44
2022/08/11 13:17:23;;;;;;;0.38;0.32;;;26.10;35.20;;;;;;6238619;27;20119;-45
2022/08/11 13:20:47;;;;;;;0.30;0.30;;;26.00;35.10;;;;;;6231144;27;20139;-44
2022/08/11 13:23:51;;;;;;;0.80;0.40;;;26.10;35.20;;;;;;6248834;27;21259;-46
2022/08/11 13:27:04;;;;;;;0.40;0.40;;;25.90;35.10;;;;;;6236736;27;26754;-47
2022/08/11 13:33:19;;;;;;;0.30;0.30;;;26.10;35.40;;;;;;6247026;27;20055;-47
2022/08/11 13:36:26;;;;;;;0.80;0.38;;;26.00;35.30;;;;;;6262230;27;21171;-48
2022/08/11 13:39:31;;;;;;;0.65;0.50;;;26.00;35.30;;;;;;6243406;27;20050;-46
2022/08/11 13:42:33;;;;;;;0.40;0.38;;;25.90;35.20;;;;;;6263824;27;20043;-47
2022/08/11 13:45:36;;;;;;;0.60;0.40;;;26.00;35.30;;;;;;6259698;27;20073;-46
2022/08/11 13:48:38;;;;;;;0.65;0.50;;;26.10;35.40;;;;;;6255280;27;20046;-44
2022/08/11 13:51:40;;;;;;;0.30;0.30;;;25.90;35.20;;;;;;6261077;27;20079;-44
2022/08/11 13:54:46;;;;;;;0.40;0.40;;;26.10;35.30;;;;;;6224236;27;20093;-46
2022/08/11 13:57:51;;;;;;;0.50;0.40;;;26.10;36.00;;;;;;6227817;27;20050;-45
2022/08/11 14:01:13;;;;;;;0.47;0.32;;;26.10;35.30;;;;;;6212443;27;20035;-44
2022/08/11 14:04:39;;;;;;;0.40;0.32;;;26.10;35.20;;;;;;6209002;27;20043;-43
2022/08/11 14:07:47;;;;;;;0.70;0.40;;;26.00;35.10;;;;;;6195550;27;20152;-45
2022/08/11 14:14:34;;;;;;;1.50;0.30;;;25.90;34.90;;;;;;6210835;27;20043;-43
2022/08/11 14:17:39;;;;;;;0.40;0.30;;;26.00;35.00;;;;;;6208311;27;20043;-45
2022/08/11 14:24:10;;;;;;;0.55;0.40;;;26.00;35.00;;;;;;6222871;27;20182;-42
2022/08/11 14:27:16;;;;;;;0.30;0.30;;;26.20;35.20;;;;;;6231701;27;20186;-43
2022/08/11 14:34:03;;;;;;;0.50;0.30;;;26.10;35.00;;;;;;6227523;27;20054;-43
2022/08/11 14:37:10;;;;;;;0.50;0.50;;;26.00;35.00;;;;;;6224809;27;20155;-41
2022/08/11 14:47:03;;;;;;;0.50;0.50;;;26.10;35.00;;;;;;6207498;27;20050;-42
2022/08/11 14:47:13;;;;;;;0.65;0.50;;;26.10;34.90;;;;;;6213847;27;29038;-48
2022/08/11 14:50:28;;;;;;;0.60;0.50;;;26.20;34.90;;;;;;6255808;27;21150;-46
2022/08/11 14:53:30;;;;;;;0.60;0.40;;;26.20;34.80;;;;;;6247304;27;20177;-43
2022/08/11 14:56:36;;;;;;;0.40;0.40;;;26.20;34.90;;;;;;6245713;27;21057;-41
2022/08/11 14:59:38;;;;;;;0.75;0.60;;;26.20;34.80;;;;;;6252324;27;20535;-41
2022/08/11 15:06:00;;;;;;;0.43;0.40;;;26.30;35.00;;;;;;6243440;27;20042;-44
2022/08/11 15:09:03;;;;;;;0.30;0.30;;;26.30;34.90;;;;;;6248933;27;20146;-43
2022/08/11 15:12:17;;;;;;;0.60;0.50;;;26.30;34.80;;;;;;6233395;27;22356;-40
2022/08/11 15:18:49;;;;;;;0.40;0.40;;;26.40;34.90;;;;;;6197665;27;35166;-41
2022/08/11 15:25:08;;;;;;;0.30;0.30;;;26.30;34.80;;;;;;6208278;27;20227;-41
2022/08/11 15:38:13;;;;;;;0.20;0.20;;;26.30;34.60;;;;;;6197731;27;20546;-43
2022/08/11 15:48:08;;;;;;;1.40;0.30;;;26.40;34.70;;;;;;6237140;27;28803;-41
2022/08/11 15:51:21;;;;;;;0.35;0.30;;;26.50;34.70;;;;;;6224666;27;20360;-43
2022/08/11 15:54:30;;;;;;;0.40;0.40;;;26.40;34.50;;;;;;6224677;27;20768;-42
2022/08/11 16:04:17;;;;;;;0.35;0.30;;;26.50;34.60;;;;;;6265189;27;20050;-44
2022/08/11 16:07:25;;;;;;;1.00;0.50;;;26.60;34.60;;;;;;6237929;27;20343;-46
2022/08/11 16:10:29;;;;;;;0.30;0.30;;;26.50;34.40;;;;;;6253808;27;20410;-43
2022/08/11 16:16:53;;;;;;;0.30;0.30;;;26.60;34.30;;;;;;6260401;27;20043;-47
2022/08/11 16:19:57;;;;;;;0.30;0.28;;;26.50;34.20;;;;;;6280170;27;20089;-46
2022/08/11 16:23:02;;;;;;;0.30;0.30;;;26.50;34.10;;;;;;6285484;27;20181;-46
2022/08/11 16:26:05;;;;;;;0.50;0.50;;;26.50;34.00;;;;;;6271208;27;20082;-44
2022/08/11 16:29:30;;;;;;;0.30;0.30;;;26.50;34.00;;;;;;6266790;27;20042;-48
2022/08/11 16:32:33;;;;;;;0.35;0.35;;;26.60;34.00;;;;;;6281363;27;20368;-46
2022/08/11 16:38:49;;;;;;;0.38;0.30;;;26.60;33.90;;;;;;6275541;27;20115;-47
2022/08/11 16:48:29;;;;;;;0.32;0.28;;;26.60;33.70;;;;;;6302644;27;20679;-45
2022/08/11 16:51:39;;;;;;;0.47;0.30;;;26.60;33.80;;;;;;6305675;27;20035;-44
2022/08/11 16:54:41;;;;;;;0.50;0.38;;;26.50;33.60;;;;;;6299987;27;20173;-47
2022/08/11 17:01:01;;;;;;;0.20;0.20;;;26.60;33.50;;;;;;6299237;27;20043;-47
2022/08/11 17:14:14;;;;;;;0.38;0.38;;;26.60;33.30;;;;;;6271905;27;20042;-46
2022/08/11 17:17:22;;;;;;;0.45;0.30;;;26.80;33.50;;;;;;6297937;27;20046;-43
2022/08/11 17:20:26;;;;;;;0.40;0.35;;;26.60;33.30;;;;;;6257135;27;20384;-43
2022/08/11 17:23:49;;;;;;;0.30;0.20;;;26.50;33.30;;;;;;6296039;27;20678;-43
2022/08/11 17:26:55;;;;;;;0.63;0.57;;;26.60;33.30;;;;;;6296547;27;20358;-44
2022/08/11 17:30:00;;;;;;;0.50;0.30;;;26.60;33.30;;;;;;6292151;27;20031;-44
2022/08/11 17:36:19;;;;;;;0.25;0.25;;;26.60;33.20;;;;;;6271945;27;20047;-43
2022/08/11 17:39:27;;;;;;;0.30;0.30;;;26.50;33.20;;;;;;6288892;27;20615;-46
2022/08/11 17:49:00;;;;;;;0.35;0.28;;;26.60;33.10;;;;;;6298534;27;20035;-44
2022/08/11 18:05:42;;;;;;;0.40;0.30;;;26.70;32.90;;;;;;6306798;27;20039;-47
